Time;durP1;ratioP1;P1;durP2;ratioP2;P2;SDS_P1;SDS_P2;PMS_P1;PMS_P2;Temp;Humidity;BMP_temperature;BMP_pressure;BME280_temperature;BME280_humidity;BME280_pressure;Samples;Min_cycle;Max_cycle;Signal;HPM_P1;HPM_P2
2021/11/11 00:00:26;;;;;;;;;;;6.60;99.90;;;;;;5015001;28;19906;-77
2021/11/11 00:02:52;;;;;;;;;;;6.90;99.90;;;;;;5014520;28;20003;-78
2021/11/11 00:05:18;;;;;;;;;;;7.00;99.90;;;;;;5014567;28;19909;-77
2021/11/11 00:07:44;;;;;;;;;;;6.90;99.90;;;;;;5014539;28;19910;-76
2021/11/11 00:10:12;;;;;;;;;;;6.90;99.90;;;;;;5014515;28;19952;-79
2021/11/11 00:12:38;;;;;;;;;;;6.80;99.90;;;;;;5012870;28;20228;-78
2021/11/11 00:15:05;;;;;;;;;;;6.70;99.90;;;;;;5014373;28;19912;-78
2021/11/11 00:17:30;;;;;;;;;;;6.90;99.50;;;;;;5014376;28;19937;-78
2021/11/11 00:19:56;;;;;;;;;;;6.90;99.50;;;;;;5014466;28;20341;-77
2021/11/11 00:22:22;;;;;;;;;;;6.90;99.40;;;;;;5014346;28;19911;-77
2021/11/11 00:24:47;;;;;;;;;;;7.00;98.40;;;;;;5014249;28;20394;-78
2021/11/11 00:27:13;;;;;;;;;;;6.60;98.90;;;;;;5012873;28;19909;-77
2021/11/11 00:29:39;;;;;;;;;;;6.70;98.60;;;;;;5014166;28;19954;-76
2021/11/11 00:32:05;;;;;;;;;;;6.70;98.60;;;;;;5014056;28;19913;-78
2021/11/11 00:34:31;;;;;;;;;;;6.80;98.00;;;;;;5014136;28;19988;-78
2021/11/11 00:36:56;;;;;;;;;;;6.80;97.50;;;;;;5014066;28;20008;-77
2021/11/11 00:39:22;;;;;;;;;;;6.80;97.80;;;;;;5013951;28;19912;-77
2021/11/11 00:41:47;;;;;;;;;;;6.50;99.50;;;;;;5013168;28;19909;-78
2021/11/11 00:44:13;;;;;;;;;;;6.40;99.90;;;;;;5014360;28;20302;-77
2021/11/11 00:46:39;;;;;;;;;;;6.10;99.90;;;;;;5013965;28;19912;-77
2021/11/11 00:49:08;;;;;;;;;;;6.00;99.90;;;;;;5014000;28;19955;-77
2021/11/11 00:51:34;;;;;;;;;;;6.30;99.90;;;;;;5014114;28;19940;-77
2021/11/11 00:54:00;;;;;;;;;;;6.30;99.90;;;;;;5014258;28;19906;-78
2021/11/11 00:56:27;;;;;;;;;;;6.30;99.90;;;;;;5013924;28;19912;-78
2021/11/11 00:58:53;;;;;;;;;;;6.50;99.50;;;;;;5012543;28;19906;-77
2021/11/11 01:01:18;;;;;;;;;;;6.70;98.70;;;;;;5013883;28;20366;-77
2021/11/11 01:03:44;;;;;;;;;;;6.70;98.20;;;;;;5014011;28;19909;-78
2021/11/11 01:06:11;;;;;;;;;;;6.60;98.20;;;;;;5013810;28;19905;-78
2021/11/11 01:08:36;;;;;;;;;;;6.60;98.40;;;;;;5012332;28;20444;-78
2021/11/11 01:11:03;;;;;;;;;;;6.60;98.40;;;;;;5013647;28;19909;-77
2021/11/11 01:13:29;;;;;;;;;;;6.50;98.30;;;;;;5012150;28;20031;-76
2021/11/11 01:15:54;;;;;;;;;;;6.50;98.70;;;;;;5013726;28;19967;-80
2021/11/11 01:18:21;;;;;;;;;;;6.30;98.90;;;;;;5013662;28;19912;-79
2021/11/11 01:20:46;;;;;;;;;;;6.20;99.80;;;;;;5013594;28;19956;-79
2021/11/11 01:23:12;;;;;;;;;;;6.00;99.90;;;;;;5013560;28;19906;-79
2021/11/11 01:25:39;;;;;;;;;;;6.10;99.90;;;;;;5013967;28;19916;-77
2021/11/11 01:28:06;;;;;;;;;;;6.10;99.90;;;;;;5013828;28;20436;-77
2021/11/11 01:30:31;;;;;;;;;;;6.30;99.80;;;;;;5013615;28;19905;-77
2021/11/11 01:32:57;;;;;;;;;;;6.10;99.00;;;;;;5013527;28;19963;-78
2021/11/11 01:35:23;;;;;;;;;;;5.80;99.90;;;;;;5013506;28;19999;-77
2021/11/11 01:37:48;;;;;;;;;;;5.50;99.90;;;;;;5013519;28;19954;-78
2021/11/11 01:40:16;;;;;;;;;;;5.40;99.90;;;;;;5013491;28;19912;-78
2021/11/11 01:42:46;;;;;;;;;;;5.60;99.90;;;;;;5013388;28;19960;-77
2021/11/11 01:45:13;;;;;;;;;;;5.80;99.90;;;;;;5013421;28;19951;-78
2021/11/11 01:47:39;;;;;;;;;;;5.80;99.10;;;;;;5013530;28;19909;-77
2021/11/11 01:50:04;;;;;;;;;;;5.80;99.50;;;;;;5013518;28;20333;-77
2021/11/11 01:52:30;;;;;;;;;;;6.00;98.80;;;;;;5015083;28;19944;-78
2021/11/11 01:54:56;;;;;;;;;;;5.80;99.20;;;;;;5017026;28;19905;-77
2021/11/11 01:57:25;;;;;;;;;;;5.70;99.90;;;;;;5016944;28;19988;-78
2021/11/11 01:59:51;;;;;;;;;;;5.40;99.90;;;;;;5016794;28;20357;-77
2021/11/11 02:02:23;;;;;;;;;;;5.10;99.90;;;;;;5016798;28;19912;-77
2021/11/11 02:04:49;;;;;;;;;;;5.00;99.90;;;;;;5016792;28;19905;-77
2021/11/11 02:07:15;;;;;;;;;;;5.40;99.90;;;;;;5016591;28;19978;-77
2021/11/11 02:09:40;;;;;;;;;;;5.60;99.90;;;;;;5016968;28;19940;-77
2021/11/11 02:12:06;;;;;;;;;;;5.70;99.90;;;;;;5016523;28;19924;-78
2021/11/11 02:14:32;;;;;;;;;;;5.60;99.90;;;;;;5016581;28;20380;-77
2021/11/11 02:16:57;;;;;;;;;;;5.70;99.90;;;;;;5016520;28;19995;-77
2021/11/11 02:19:23;;;;;;;;;;;5.60;99.90;;;;;;5016654;28;20373;-78
2021/11/11 02:21:54;;;;;;;;;;;5.30;99.90;;;;;;5016454;28;19913;-77
2021/11/11 02:24:20;;;;;;;;;;;5.30;99.90;;;;;;5016512;28;19905;-78
2021/11/11 02:26:46;;;;;;;;;;;5.50;99.90;;;;;;5016248;28;19953;-77
2021/11/11 02:29:11;;;;;;;;;;;5.40;99.90;;;;;;5016292;28;19912;-77
2021/11/11 02:31:37;;;;;;;;;;;5.40;99.90;;;;;;5016557;28;19980;-77
2021/11/11 02:34:03;;;;;;;;;;;5.60;99.90;;;;;;5016383;28;19910;-78
2021/11/11 02:36:28;;;;;;;;;;;5.50;99.90;;;;;;5016451;28;19905;-78
2021/11/11 02:38:54;;;;;;;;;;;5.40;99.90;;;;;;5016038;28;20337;-78
2021/11/11 02:41:20;;;;;;;;;;;5.10;99.90;;;;;;5014790;28;19928;-78
2021/11/11 02:43:46;;;;;;;;;;;4.90;99.90;;;;;;5016168;28;19912;-77
2021/11/11 02:46:12;;;;;;;;;;;4.70;99.90;;;;;;5016070;28;19913;-77
2021/11/11 02:48:38;;;;;;;;;;;4.60;99.90;;;;;;5014636;28;19913;-77
2021/11/11 02:51:04;;;;;;;;;;;4.60;99.90;;;;;;5015882;28;19905;-78
2021/11/11 02:53:29;;;;;;;;;;;4.60;99.90;;;;;;5016270;28;19906;-77
2021/11/11 02:55:55;;;;;;;;;;;5.00;99.90;;;;;;5014453;28;19931;-78
2021/11/11 02:58:23;;;;;;;;;;;5.10;99.90;;;;;;5015920;28;19905;-78
2021/11/11 03:00:51;;;;;;;;;;;4.90;99.90;;;;;;5015770;28;20008;-78
2021/11/11 03:03:16;;;;;;;;;;;5.10;99.90;;;;;;5014886;28;19912;-77
2021/11/11 03:05:42;;;;;;;;;;;5.50;99.90;;;;;;5015526;28;19905;-78
2021/11/11 03:08:08;;;;;;;;;;;5.50;99.90;;;;;;5015699;28;20360;-78
2021/11/11 03:10:37;;;;;;;;;;;5.20;99.90;;;;;;5015528;28;19905;-77
2021/11/11 03:13:02;;;;;;;;;;;5.10;99.90;;;;;;5015218;28;19948;-78
2021/11/11 03:15:29;;;;;;;;;;;5.10;99.90;;;;;;5014089;28;20384;-78
2021/11/11 03:17:54;;;;;;;;;;;5.00;99.90;;;;;;5015387;28;19909;-78
2021/11/11 03:20:20;;;;;;;;;;;5.00;99.90;;;;;;5015285;28;20324;-77
2021/11/11 03:22:46;;;;;;;;;;;4.90;99.90;;;;;;5015192;28;20334;-77
2021/11/11 03:25:13;;;;;;;;;;;4.70;99.90;;;;;;5015208;28;19953;-78
2021/11/11 03:27:39;;;;;;;;;;;4.60;99.90;;;;;;5015075;28;19917;-76
2021/11/11 03:30:07;;;;;;;;;;;4.40;99.90;;;;;;5013925;28;19913;-78
2021/11/11 03:32:33;;;;;;;;;;;4.40;99.90;;;;;;5013809;28;19999;-78
2021/11/11 03:34:58;;;;;;;;;;;4.40;99.90;;;;;;5015494;28;20401;-78
2021/11/11 03:37:24;;;;;;;;;;;4.80;99.90;;;;;;5015040;28;19905;-78
2021/11/11 03:39:50;;;;;;;;;;;4.90;99.90;;;;;;5014993;28;19929;-78
2021/11/11 03:42:16;;;;;;;;;;;5.00;99.90;;;;;;5014955;28;20285;-78
2021/11/11 03:44:42;;;;;;;;;;;5.00;99.90;;;;;;5014853;28;19905;-77
2021/11/11 03:47:08;;;;;;;;;;;4.80;99.90;;;;;;5014832;28;19976;-77
2021/11/11 03:49:34;;;;;;;;;;;4.60;99.90;;;;;;5013527;28;19909;-78
2021/11/11 03:51:59;;;;;;;;;;;4.50;99.90;;;;;;5013495;28;19905;-77
2021/11/11 03:54:27;;;;;;;;;;;4.70;99.90;;;;;;5014815;28;19945;-78
2021/11/11 03:56:55;;;;;;;;;;;4.80;99.90;;;;;;5014677;28;20358;-76
2021/11/11 03:59:21;;;;;;;;;;;4.70;99.90;;;;;;5013428;28;20373;-78
2021/11/11 04:01:47;;;;;;;;;;;4.40;99.90;;;;;;5013391;28;19990;-78
2021/11/11 04:04:12;;;;;;;;;;;4.40;99.90;;;;;;5014606;28;19949;-77
2021/11/11 04:06:38;;;;;;;;;;;4.80;99.90;;;;;;5013266;28;19913;-77
2021/11/11 04:09:04;;;;;;;;;;;4.90;99.90;;;;;;5014563;28;20004;-78
2021/11/11 04:11:30;;;;;;;;;;;4.70;99.90;;;;;;5014310;28;19913;-76
2021/11/11 04:13:56;;;;;;;;;;;4.80;99.90;;;;;;5013096;28;19906;-78
2021/11/11 04:16:22;;;;;;;;;;;4.70;99.90;;;;;;5014275;28;19906;-78
2021/11/11 04:18:47;;;;;;;;;;;4.60;99.90;;;;;;5014327;28;19932;-78
2021/11/11 04:21:13;;;;;;;;;;;4.50;99.90;;;;;;5014354;28;20397;-78
2021/11/11 04:23:39;;;;;;;;;;;4.40;99.90;;;;;;5014261;28;20358;-77
2021/11/11 04:26:19;;;;;;;;;;;4.50;99.90;;;;;;5014250;28;19905;-77
2021/11/11 04:31:19;;;;;;;;;;;4.80;99.90;;;;;;5014212;28;19906;-77
2021/11/11 04:33:46;;;;;;;;;;;4.80;99.90;;;;;;5014158;28;19911;-78
2021/11/11 05:00:06;;;;;;;;;;;4.00;99.90;;;;;;5014006;28;20421;-77
2021/11/11 05:05:03;;;;;;;;;;;4.60;99.90;;;;;;5013564;28;19905;-78
2021/11/11 05:07:29;;;;;;;;;;;4.60;99.90;;;;;;5013702;28;19909;-79
2021/11/11 05:09:54;;;;;;;;;;;4.60;99.90;;;;;;5012421;28;20282;-78
2021/11/11 05:12:20;;;;;;;;;;;4.50;99.90;;;;;;5013536;28;19917;-78
2021/11/11 05:14:46;;;;;;;;;;;4.60;99.90;;;;;;5012411;28;19905;-77
2021/11/11 05:17:12;;;;;;;;;;;4.50;99.90;;;;;;5013727;28;19951;-78
2021/11/11 05:19:38;;;;;;;;;;;4.40;99.90;;;;;;5012455;28;19909;-78
2021/11/11 05:22:05;;;;;;;;;;;4.40;99.90;;;;;;5013540;28;20398;-76
2021/11/11 05:24:31;;;;;;;;;;;4.60;99.90;;;;;;5013701;28;20294;-77
2021/11/11 05:27:03;;;;;;;;;;;4.70;99.90;;;;;;5014358;28;19960;-78
2021/11/11 05:29:29;;;;;;;;;;;4.80;99.90;;;;;;5017549;28;20420;-78
2021/11/11 05:31:55;;;;;;;;;;;4.90;99.90;;;;;;5017575;28;19905;-77
2021/11/11 05:34:20;;;;;;;;;;;5.00;99.90;;;;;;5016068;28;20361;-77
2021/11/11 05:36:46;;;;;;;;;;;5.00;99.90;;;;;;5017297;28;19913;-78
2021/11/11 05:39:11;;;;;;;;;;;4.80;99.90;;;;;;5017546;28;20370;-77
2021/11/11 05:41:39;;;;;;;;;;;4.60;99.90;;;;;;5017194;28;19968;-79
2021/11/11 05:44:05;;;;;;;;;;;4.30;99.90;;;;;;5017171;28;19913;-77
2021/11/11 05:46:31;;;;;;;;;;;4.40;99.90;;;;;;5017169;28;19905;-78
2021/11/11 05:48:56;;;;;;;;;;;4.60;99.90;;;;;;5017031;28;19964;-77
2021/11/11 05:51:22;;;;;;;;;;;4.40;99.90;;;;;;5017022;28;19960;-78
2021/11/11 05:53:47;;;;;;;;;;;4.40;99.90;;;;;;5016981;28;19913;-77
2021/11/11 05:56:13;;;;;;;;;;;4.40;99.90;;;;;;5016971;28;19906;-77
2021/11/11 05:58:39;;;;;;;;;;;4.20;99.90;;;;;;5016920;28;19941;-78
2021/11/11 06:01:04;;;;;;;;;;;4.50;99.90;;;;;;5017016;28;19905;-78
2021/11/11 06:03:30;;;;;;;;;;;4.50;99.90;;;;;;5015513;28;19960;-77
2021/11/11 06:05:56;;;;;;;;;;;4.20;99.90;;;;;;5016826;28;20403;-77
2021/11/11 06:08:22;;;;;;;;;;;4.20;99.90;;;;;;5016700;28;19935;-78
2021/11/11 06:10:48;;;;;;;;;;;4.30;99.90;;;;;;5016687;28;19909;-78
2021/11/11 06:13:13;;;;;;;;;;;4.50;99.90;;;;;;5016198;28;19917;-78
2021/11/11 06:15:39;;;;;;;;;;;4.40;99.90;;;;;;5015269;28;19909;-78
2021/11/11 06:18:04;;;;;;;;;;;4.30;99.90;;;;;;5016856;28;19996;-77
2021/11/11 06:20:31;;;;;;;;;;;4.60;99.90;;;;;;5016560;28;19906;-76
2021/11/11 06:22:57;;;;;;;;;;;4.70;99.90;;;;;;5016439;28;19905;-77
2021/11/11 06:25:23;;;;;;;;;;;4.70;99.90;;;;;;5016370;28;19905;-78
2021/11/11 06:27:49;;;;;;;;;;;4.60;99.90;;;;;;5016441;28;19909;-77
2021/11/11 06:30:14;;;;;;;;;;;4.60;99.90;;;;;;5014996;28;20382;-78
2021/11/11 06:32:40;;;;;;;;;;;4.40;99.90;;;;;;5016341;28;20365;-77
2021/11/11 06:35:07;;;;;;;;;;;4.30;99.90;;;;;;5016185;28;19912;-77
2021/11/11 06:37:34;;;;;;;;;;;4.10;99.90;;;;;;5016187;28;19905;-77
2021/11/11 06:39:59;;;;;;;;;;;3.90;99.90;;;;;;5014958;28;19909;-80
2021/11/11 06:42:25;;;;;;;;;;;3.80;99.90;;;;;;5016075;28;19905;-80
2021/11/11 06:44:51;;;;;;;;;;;3.70;99.90;;;;;;5016465;28;20012;-79
2021/11/11 06:47:16;;;;;;;;;;;3.70;99.90;;;;;;5014440;28;19958;-80
2021/11/11 06:49:42;;;;;;;;;;;3.70;99.90;;;;;;5016130;28;19913;-81
2021/11/11 06:52:08;;;;;;;;;;;3.90;99.90;;;;;;5014839;28;20014;-81
2021/11/11 06:54:33;;;;;;;;;;;4.40;99.90;;;;;;5014557;28;19905;-80
2021/11/11 06:56:59;;;;;;;;;;;4.50;99.90;;;;;;5015858;28;19911;-80
2021/11/11 06:59:25;;;;;;;;;;;4.40;99.90;;;;;;5014479;28;19905;-80
2021/11/11 07:01:50;;;;;;;;;;;4.50;99.90;;;;;;5014406;28;19906;-80
2021/11/11 07:04:16;;;;;;;;;;;4.40;99.90;;;;;;5014357;28;20256;-79
2021/11/11 07:06:41;;;;;;;;;;;4.20;99.90;;;;;;5015760;28;19997;-80
2021/11/11 07:09:07;;;;;;;;;;;4.50;99.90;;;;;;5015457;28;20287;-81
2021/11/11 07:11:33;;;;;;;;;;;4.70;99.90;;;;;;5013859;28;19914;-80
2021/11/11 07:13:59;;;;;;;;;;;4.70;99.90;;;;;;5015588;28;19910;-80
2021/11/11 07:16:24;;;;;;;;;;;4.70;99.90;;;;;;5014151;28;19912;-80
2021/11/11 07:18:50;;;;;;;;;;;4.80;99.90;;;;;;5015371;28;19913;-80
2021/11/11 07:21:16;;;;;;;;;;;4.80;99.90;;;;;;5015413;28;19905;-80
2021/11/11 07:23:42;;;;;;;;;;;4.80;99.90;;;;;;5015296;28;20391;-80
2021/11/11 07:26:07;;;;;;;;;;;4.80;99.90;;;;;;5015209;28;19909;-80
2021/11/11 07:28:33;;;;;;;;;;;4.80;99.90;;;;;;5015150;28;19917;-80
2021/11/11 07:30:59;;;;;;;;;;;4.80;99.90;;;;;;5015375;28;20011;-80
2021/11/11 07:33:24;;;;;;;;;;;4.90;99.90;;;;;;5015083;28;20313;-79
2021/11/11 07:35:50;;;;;;;;;;;4.70;99.90;;;;;;5015084;28;20000;-79
2021/11/11 07:38:16;;;;;;;;;;;4.00;99.90;;;;;;5014946;28;20317;-80
2021/11/11 07:40:42;;;;;;;;;;;4.20;99.90;;;;;;5015002;28;20000;-80
2021/11/11 07:43:08;;;;;;;;;;;4.50;99.90;;;;;;5015095;28;19957;-80
2021/11/11 07:45:34;;;;;;;;;;;4.80;99.90;;;;;;5015013;28;20277;-80
2021/11/11 07:48:01;;;;;;;;;;;5.10;99.90;;;;;;5014826;28;19909;-80
2021/11/11 07:50:29;;;;;;;;;;;5.20;99.90;;;;;;5014318;28;20325;-80
2021/11/11 07:52:57;;;;;;;;;;;5.40;99.90;;;;;;5014926;28;19996;-80
2021/11/11 07:55:23;;;;;;;;;;;5.50;99.90;;;;;;5014687;28;19905;-80
2021/11/11 07:57:50;;;;;;;;;;;5.40;99.90;;;;;;5014746;28;19906;-80
2021/11/11 08:00:16;;;;;;;;;;;5.60;99.90;;;;;;5014694;28;20285;-79
2021/11/11 08:02:43;;;;;;;;;;;5.60;99.90;;;;;;5015009;28;19905;-81
2021/11/11 08:05:09;;;;;;;;;;;5.60;99.90;;;;;;5014720;28;19909;-79
2021/11/11 08:07:35;;;;;;;;;;;5.60;99.90;;;;;;5014655;28;19996;-80
2021/11/11 08:10:00;;;;;;;;;;;5.60;99.90;;;;;;5014449;28;19988;-79
2021/11/11 08:12:26;;;;;;;;;;;5.10;99.90;;;;;;5014151;28;20289;-79
2021/11/11 08:14:52;;;;;;;;;;;4.90;99.90;;;;;;5014327;28;19912;-80
2021/11/11 08:17:21;;;;;;;;;;;4.80;99.90;;;;;;5014511;28;19979;-79
2021/11/11 08:19:47;;;;;;;;;;;4.80;99.90;;;;;;5013036;28;20333;-80
2021/11/11 08:22:12;;;;;;;;;;;4.80;99.90;;;;;;5014232;28;19937;-78
2021/11/11 08:24:43;;;;;;;;;;;4.80;99.90;;;;;;5014229;28;19909;-80
2021/11/11 08:27:10;;;;;;;;;;;5.00;99.90;;;;;;5014493;28;19953;-79
2021/11/11 08:29:35;;;;;;;;;;;5.30;99.90;;;;;;5014028;28;20362;-80
2021/11/11 08:32:01;;;;;;;;;;;5.50;99.90;;;;;;5014227;28;19905;-80
2021/11/11 08:34:26;;;;;;;;;;;5.60;99.90;;;;;;5014071;28;20004;-80
2021/11/11 08:36:53;;;;;;;;;;;5.80;99.90;;;;;;5014041;28;19945;-80
2021/11/11 08:39:18;;;;;;;;;;;6.00;99.90;;;;;;5013901;28;19909;-80
2021/11/11 08:41:44;;;;;;;;;;;6.10;99.90;;;;;;5014024;28;19972;-79
2021/11/11 08:44:10;;;;;;;;;;;6.30;99.90;;;;;;5014352;28;19906;-80
2021/11/11 08:46:35;;;;;;;;;;;7.00;99.90;;;;;;5014107;28;19920;-80
2021/11/11 08:49:01;;;;;;;;;;;7.00;99.90;;;;;;5014002;28;19909;-77
2021/11/11 08:51:27;;;;;;;;;;;7.20;99.90;;;;;;5013922;28;20298;-78
2021/11/11 08:53:53;;;;;;;;;;;7.50;99.40;;;;;;5012596;28;19913;-78
2021/11/11 08:56:19;;;;;;;;;;;7.90;98.90;;;;;;5014053;28;19906;-78
2021/11/11 08:58:46;;;;;;;;;;;8.00;98.20;;;;;;5013903;28;19913;-78
2021/11/11 09:01:11;;;;;;;;;;;8.20;97.00;;;;;;5012449;28;19941;-78
2021/11/11 09:03:39;;;;;;;;;;;8.30;97.10;;;;;;5017671;28;19906;-77
2021/11/11 09:06:05;;;;;;;;;;;8.40;96.50;;;;;;5017797;28;19996;-78
2021/11/11 09:08:31;;;;;;;;;;;8.40;96.90;;;;;;5017710;28;19909;-78
2021/11/11 09:10:57;;;;;;;;;;;8.40;96.30;;;;;;5017881;28;19906;-77
2021/11/11 09:13:23;;;;;;;;;;;8.10;97.40;;;;;;5016009;28;19923;-78
2021/11/11 09:15:49;;;;;;;;;;;8.30;97.10;;;;;;5016364;28;19906;-78
2021/11/11 09:18:14;;;;;;;;;;;8.60;97.40;;;;;;5017634;28;19905;-78
2021/11/11 09:20:40;;;;;;;;;;;9.20;95.60;;;;;;5017543;28;19956;-77
2021/11/11 09:23:07;;;;;;;;;;;9.20;95.40;;;;;;5017699;28;19959;-77
2021/11/11 09:25:33;;;;;;;;;;;9.30;95.80;;;;;;5017727;28;19912;-80
2021/11/11 09:27:59;;;;;;;;;;;9.30;95.90;;;;;;5016128;28;19909;-78
2021/11/11 09:30:27;;;;;;;;;;;9.80;94.90;;;;;;5017650;28;20409;-79
2021/11/11 09:32:53;;;;;;;;;;;10.00;93.50;;;;;;5017370;28;19906;-78
2021/11/11 09:35:19;;;;;;;;;;;9.00;95.40;;;;;;5017352;28;19910;-78
2021/11/11 09:37:45;;;;;;;;;;;7.70;99.90;;;;;;5016031;28;19917;-79
2021/11/11 09:40:13;;;;;;;;;;;7.70;99.90;;;;;;5017316;28;19933;-80
2021/11/11 09:42:38;;;;;;;;;;;7.60;99.90;;;;;;5017325;28;20370;-78
2021/11/11 09:45:05;;;;;;;;;;;8.20;99.90;;;;;;5017183;28;19913;-78
2021/11/11 09:47:31;;;;;;;;;;;8.50;99.90;;;;;;5017053;28;19916;-78
2021/11/11 09:49:57;;;;;;;;;;;8.80;97.80;;;;;;5017042;28;19912;-78
2021/11/11 09:52:24;;;;;;;;;;;9.00;97.70;;;;;;5017367;28;19905;-77
2021/11/11 10:00:19;;;;;;;;;;;8.40;97.20;;;;;;5016976;28;19979;-79
2021/11/11 10:02:44;;;;;;;;;;;9.10;99.00;;;;;;5016934;28;20370;-78
2021/11/11 10:05:10;;;;;;;;;;;9.90;97.30;;;;;;5016912;28;19905;-77
2021/11/11 10:07:36;;;;;;;;;;;10.20;95.60;;;;;;5016709;28;19909;-77
2021/11/11 10:10:02;;;;;;;;;;;10.40;94.80;;;;;;5016678;28;19913;-78
2021/11/11 10:12:27;;;;;;;;;;;10.40;95.30;;;;;;5016108;28;19918;-78
2021/11/11 10:15:06;;;;;;;;;;;10.80;94.50;;;;;;5016674;28;19952;-79
2021/11/11 10:17:38;;;;;;;;;;;11.70;93.50;;;;;;5016582;28;19913;-78
2021/11/11 10:20:05;;;;;;;;;;;11.30;91.80;;;;;;5016654;28;19905;-79
2021/11/11 10:22:33;;;;;;;;;;;11.90;92.90;;;;;;5015195;28;19906;-78
2021/11/11 10:25:05;;;;;;;;;;;10.90;92.40;;;;;;5015128;28;19905;-79
2021/11/11 10:27:43;;;;;;;;;;;11.60;93.20;;;;;;5016297;28;19909;-78
2021/11/11 10:30:08;;;;;;;;;;;12.20;92.40;;;;;;5016741;28;20366;-78
2021/11/11 10:32:45;;;;;;;;;;;13.20;87.60;;;;;;5016507;28;19905;-78
2021/11/11 10:35:31;;;;;;;;;;;12.90;88.70;;;;;;5016408;28;19905;-79
2021/11/11 10:37:59;;;;;;;;;;;14.10;87.50;;;;;;5016562;28;20321;-79
2021/11/11 10:40:32;;;;;;;;;;;16.30;78.80;;;;;;5016190;28;19913;-79
2021/11/11 10:42:59;;;;;;;;;;;16.70;72.30;;;;;;5016333;28;20376;-78
2021/11/11 10:45:26;;;;;;;;;;;16.30;74.40;;;;;;5016081;28;19928;-79
2021/11/11 10:47:53;;;;;;;;;;;16.50;74.70;;;;;;5015919;28;20377;-79
2021/11/11 10:50:21;;;;;;;;;;;17.30;71.90;;;;;;5016104;28;19937;-79
2021/11/11 10:52:51;;;;;;;;;;;18.90;67.70;;;;;;5014562;28;20392;-79
2021/11/11 10:55:16;;;;;;;;;;;19.30;63.80;;;;;;5015936;28;19905;-79
2021/11/11 10:57:42;;;;;;;;;;;20.20;61.70;;;;;;5014554;28;19913;-79
2021/11/11 11:00:14;;;;;;;;;;;21.10;60.20;;;;;;5014518;28;20407;-79
2021/11/11 11:02:55;;;;;;;;;;;22.70;56.80;;;;;;5015721;28;19912;-79
2021/11/11 11:05:22;;;;;;;;;;;23.90;54.10;;;;;;5015682;28;19905;-79
2021/11/11 11:08:08;;;;;;;;;;;25.20;51.10;;;;;;5015686;28;19981;-79
2021/11/11 11:10:35;;;;;;;;;;;25.20;51.60;;;;;;5015237;28;19905;-79
2021/11/11 11:13:13;;;;;;;;;;;26.10;49.60;;;;;;5015270;28;20007;-80
2021/11/11 11:15:42;;;;;;;;;;;26.00;48.70;;;;;;5013951;28;19909;-80
2021/11/11 11:18:08;;;;;;;;;;;26.30;48.20;;;;;;5015590;28;19905;-79
2021/11/11 11:20:34;;;;;;;;;;;27.30;47.60;;;;;;5015468;28;19912;-80
2021/11/11 11:23:10;;;;;;;;;;;26.10;48.40;;;;;;5015346;28;19905;-80
2021/11/11 11:25:36;;;;;;;;;;;26.10;48.10;;;;;;5014550;28;19905;-79
2021/11/11 11:28:01;;;;;;;;;;;27.30;47.60;;;;;;5015165;28;19916;-79
2021/11/11 11:30:46;;;;;;;;;;;28.10;46.20;;;;;;5015381;28;19927;-80
2021/11/11 11:33:18;;;;;;;;;;;28.30;45.60;;;;;;5015245;28;19913;-79
2021/11/11 11:35:44;;;;;;;;;;;29.40;45.20;;;;;;5015112;28;19909;-80
2021/11/11 11:38:23;;;;;;;;;;;29.90;44.10;;;;;;5013719;28;19913;-79
2021/11/11 11:40:49;;;;;;;;;;;30.10;44.20;;;;;;5015005;28;20365;-79
2021/11/11 11:43:25;;;;;;;;;;;29.90;43.30;;;;;;5015041;28;19905;-79
2021/11/11 11:45:51;;;;;;;;;;;30.30;43.30;;;;;;5014938;28;19912;-81
2021/11/11 11:48:20;;;;;;;;;;;31.30;43.40;;;;;;5015207;28;19909;-79
2021/11/11 11:50:51;;;;;;;;;;;29.80;43.30;;;;;;5015389;28;20366;-80
2021/11/11 11:53:22;;;;;;;;;;;29.90;44.30;;;;;;5014815;28;20334;-80
2021/11/11 11:55:52;;;;;;;;;;;29.00;45.60;;;;;;5014833;28;19905;-79
2021/11/11 12:09:12;;;;;;;;;;;30.50;42.90;;;;;;5014687;28;20405;-80
2021/11/11 12:14:28;;;;;;;;;;;31.80;41.60;;;;;;5014693;28;20374;-80
2021/11/11 12:17:50;;;;;;;;;;;31.60;40.60;;;;;;5012884;28;19909;-80
2021/11/11 12:39:37;;;;;;;;;;;26.20;47.40;;;;;;5014360;28;20269;-79
2021/11/11 12:42:08;;;;;;;;;;;25.80;48.30;;;;;;5012751;28;20362;-80
2021/11/11 12:44:33;;;;;;;;;;;27.10;46.70;;;;;;5013990;28;20381;-80
2021/11/11 12:46:59;;;;;;;;;;;26.70;45.70;;;;;;5012698;28;19905;-80
2021/11/11 12:49:36;;;;;;;;;;;25.90;47.20;;;;;;5013951;28;19909;-79
2021/11/11 12:52:14;;;;;;;;;;;25.20;48.40;;;;;;5013873;28;19905;-79
2021/11/11 12:54:43;;;;;;;;;;;25.00;48.80;;;;;;5013853;28;19943;-79
2021/11/11 12:57:10;;;;;;;;;;;25.10;49.20;;;;;;5013861;28;19992;-80
2021/11/11 12:59:36;;;;;;;;;;;24.00;50.10;;;;;;5013845;28;19905;-80
2021/11/11 13:02:06;;;;;;;;;;;24.50;50.30;;;;;;5014016;28;20285;-78
2021/11/11 13:04:50;;;;;;;;;;;25.20;48.50;;;;;;5013801;28;19906;-79
2021/11/11 13:07:30;;;;;;;;;;;24.70;49.70;;;;;;5013780;28;20000;-79
2021/11/11 13:10:04;;;;;;;;;;;25.50;48.60;;;;;;5014052;28;19914;-80
2021/11/11 13:12:30;;;;;;;;;;;26.30;48.10;;;;;;5012203;28;19917;-80
2021/11/11 13:14:57;;;;;;;;;;;24.90;50.40;;;;;;5013746;28;20366;-80
2021/11/11 13:17:24;;;;;;;;;;;25.20;49.90;;;;;;5012453;28;20433;-79
2021/11/11 13:20:03;;;;;;;;;;;25.50;49.90;;;;;;5012407;28;19993;-80
2021/11/11 13:22:45;;;;;;;;;;;26.20;49.20;;;;;;5013807;28;19916;-80
2021/11/11 14:01:28;;;;;;;;;;;27.40;47.10;;;;;;5016855;28;20016;-80
2021/11/11 14:04:19;;;;;;;;;;;27.80;46.20;;;;;;5016966;28;20397;-78
2021/11/11 15:16:20;;;;;;;;;;;21.70;57.00;;;;;;5015490;28;20325;-78
2021/11/11 15:19:26;;;;;;;;;;;21.90;57.10;;;;;;5015173;28;19905;-79
2021/11/11 16:00:48;;;;;;;;;;;19.70;62.40;;;;;;5015241;28;19905;-78
2021/11/11 16:03:18;;;;;;;;;;;19.30;63.70;;;;;;5014488;28;19984;-78
2021/11/11 16:19:49;;;;;;;;;;;17.40;68.70;;;;;;5014460;28;19912;-78
2021/11/11 16:27:12;;;;;;;;;;;16.20;72.50;;;;;;5014464;28;19905;-78
2021/11/11 16:29:37;;;;;;;;;;;15.60;74.80;;;;;;5014022;28;19921;-77
2021/11/11 16:32:03;;;;;;;;;;;15.20;76.90;;;;;;5014221;28;19913;-79
2021/11/11 16:34:30;;;;;;;;;;;14.90;78.20;;;;;;5012823;28;19909;-78
2021/11/11 16:36:56;;;;;;;;;;;14.70;79.60;;;;;;5012857;28;19905;-78
2021/11/11 16:39:22;;;;;;;;;;;14.50;80.70;;;;;;5014261;28;19905;-77
2021/11/11 16:41:47;;;;;;;;;;;14.30;81.40;;;;;;5014064;28;19912;-78
2021/11/11 16:44:13;;;;;;;;;;;14.10;82.50;;;;;;5014242;28;20305;-77
2021/11/11 16:46:40;;;;;;;;;;;14.10;83.20;;;;;;5012814;28;19996;-78
2021/11/11 16:49:06;;;;;;;;;;;14.10;83.10;;;;;;5014121;28;19914;-78
2021/11/11 16:51:32;;;;;;;;;;;14.30;82.30;;;;;;5013975;28;19928;-77
2021/11/11 16:53:58;;;;;;;;;;;14.30;82.60;;;;;;5013816;28;20364;-79
2021/11/11 16:56:25;;;;;;;;;;;14.00;84.00;;;;;;5014062;28;19905;-77
2021/11/11 16:58:51;;;;;;;;;;;13.60;86.10;;;;;;5013702;28;20000;-77
2021/11/11 17:01:17;;;;;;;;;;;13.40;87.70;;;;;;5013856;28;19984;-77
2021/11/11 17:03:42;;;;;;;;;;;13.30;88.60;;;;;;5013844;28;20312;-77
2021/11/11 17:06:08;;;;;;;;;;;13.10;89.70;;;;;;5012559;28;19906;-78
2021/11/11 17:08:34;;;;;;;;;;;12.90;90.50;;;;;;5013878;28;19909;-78
2021/11/11 17:11:00;;;;;;;;;;;12.90;91.20;;;;;;5012480;28;20362;-77
2021/11/11 17:13:25;;;;;;;;;;;12.80;91.10;;;;;;5013311;28;19922;-78
2021/11/11 17:15:51;;;;;;;;;;;12.70;91.80;;;;;;5013632;28;20414;-78
2021/11/11 17:18:17;;;;;;;;;;;12.90;91.40;;;;;;5013630;28;19949;-78
2021/11/11 17:20:44;;;;;;;;;;;12.90;91.30;;;;;;5013603;28;19906;-77
2021/11/11 17:23:16;;;;;;;;;;;12.80;91.60;;;;;;5013669;28;19913;-78
2021/11/11 17:25:54;;;;;;;;;;;12.50;92.20;;;;;;5017700;28;19909;-78
2021/11/11 17:30:51;;;;;;;;;;;12.50;92.70;;;;;;5017546;28;19909;-78
2021/11/11 17:33:17;;;;;;;;;;;12.30;93.10;;;;;;5017625;28;20259;-77
2021/11/11 17:35:43;;;;;;;;;;;12.20;93.40;;;;;;5017478;28;19905;-77
2021/11/11 17:38:09;;;;;;;;;;;12.10;93.70;;;;;;5017294;28;19996;-77
2021/11/11 17:40:35;;;;;;;;;;;12.10;94.00;;;;;;5017488;28;19940;-77
2021/11/11 17:43:01;;;;;;;;;;;11.90;94.30;;;;;;5015913;28;20354;-78
2021/11/11 17:45:42;;;;;;;;;;;11.90;94.80;;;;;;5015852;28;19911;-78
2021/11/11 17:48:07;;;;;;;;;;;11.80;94.30;;;;;;5015468;28;19913;-79
2021/11/11 17:50:39;;;;;;;;;;;11.80;95.10;;;;;;5017058;28;19905;-78
2021/11/11 17:53:07;;;;;;;;;;;11.80;95.20;;;;;;5017346;28;19905;-77
2021/11/11 17:55:37;;;;;;;;;;;11.70;95.60;;;;;;5017040;28;19909;-78
2021/11/11 17:58:04;;;;;;;;;;;11.60;95.80;;;;;;5016951;28;19913;-77
2021/11/11 18:00:30;;;;;;;;;;;11.50;96.20;;;;;;5017201;28;19913;-79
2021/11/11 18:02:55;;;;;;;;;;;11.50;96.10;;;;;;5017025;28;19905;-78
2021/11/11 18:05:22;;;;;;;;;;;11.50;95.60;;;;;;5016840;28;19906;-78
2021/11/11 18:07:59;;;;;;;;;;;11.30;95.60;;;;;;5016936;28;19959;-77
2021/11/11 18:10:31;;;;;;;;;;;11.20;95.90;;;;;;5015237;28;19911;-77
2021/11/11 18:12:58;;;;;;;;;;;11.10;96.00;;;;;;5016745;28;19924;-77
2021/11/11 18:15:27;;;;;;;;;;;11.10;95.80;;;;;;5016657;28;19912;-77
2021/11/11 18:17:54;;;;;;;;;;;10.90;96.20;;;;;;5015368;28;19956;-77
2021/11/11 18:20:20;;;;;;;;;;;10.80;96.90;;;;;;5016664;28;19916;-78